^^
nws-alerts.php - 1.15 - 19-Aug-2013 - NWS Public Alerts
Station Historical Data
 
Daily Summary for August 14, 2018 Units:  English    Metric   Both
« Previous Day
Next Day »
Daily Weekly Monthly Yearly Custom
  Current: High: Low: Average:
Temperature: 73.8 °F 78.3 °F 73.6 °F 75.2 °F
Dew Point: 72 °F 74.5 °F 71 °F 72.2 °F
Humidity: 94% 94% 86% 91%
Wind Speed: 0mph 3.2mph 0mph 0.3mph
Wind Gust: 0mph 4.6mph - -
WindCalm - - East
Pressure: 30.02 in 30.06 in 30.01 in -
Precipitation: 0 in      
Historical Graphs
 
 
Tabular Data for August 14, 2018
Time Temperature Dew Point Pressure Wind Wind Speed Wind Gust Humidity Rainfall Rate (Hourly) Conditions
00:04 77.7 °F 74.2 °F 30.05 in East 0.7 mph 1.2 mph 89% 0 in 0.00 W/m2
00:09 77.7 °F 74.2 °F 30.05 in ENE 1.3 mph 2.2 mph 89% 0 in 0.00 W/m2
00:14 78 °F 74.5 °F 30.05 in ENE 0.6 mph 1.1 mph 89% 0 in 0.00 W/m2
00:19 78.3 °F 74.5 °F 30.05 in East 2.5 mph 3.5 mph 88% 0 in 0.00 W/m2
00:24 77.9 °F 74.4 °F 30.06 in East 3.2 mph 4.6 mph 89% 0 in 0.00 W/m2
00:29 77.6 °F 74.1 °F 30.06 in ESE 2.9 mph 4.4 mph 89% 0 in 0.00 W/m2
00:34 77.7 °F 74.2 °F 30.06 in NE 1.7 mph 3.5 mph 89% 0 in 0.00 W/m2
00:39 77.9 °F 74.1 °F 30.05 in ENE 2.1 mph 3.3 mph 88% 0 in 0.00 W/m2
00:44 78.1 °F 73.9 °F 30.05 in East 0.7 mph 1.2 mph 87% 0 in 0.00 W/m2
00:49 78.2 °F 73.7 °F 30.05 in Calm     86% 0 in 0.00 W/m2
00:54 77.7 °F 73.2 °F 30.05 in Calm     86% 0 in 0.00 W/m2
00:59 77.3 °F 73.1 °F 30.05 in Calm     87% 0 in 0.00 W/m2
01:04 77.1 °F 72.9 °F 30.05 in Calm   1.1 mph 87% 0 in 0.00 W/m2
01:09 77 °F 72.8 °F 30.05 in East 1.3 mph 2.3 mph 87% 0 in 0.00 W/m2
01:14 76.8 °F 72.6 °F 30.05 in East 1.9 mph 2.3 mph 87% 0 in 0.00 W/m2
01:19 76.7 °F 72.5 °F 30.05 in Calm     87% 0 in 0.00 W/m2
01:24 76.7 °F 72.5 °F 30.05 in Calm     87% 0 in 0.00 W/m2
01:29 76.6 °F 72.4 °F 30.05 in East 1.1 mph 1.1 mph 87% 0 in 0.00 W/m2
01:34 76.6 °F 72.1 °F 30.05 in ESE 0.1 mph   86% 0 in 0.00 W/m2
01:39 76.6 °F 72.1 °F 30.05 in Calm     86% 0 in 0.00 W/m2
01:44 76.8 °F 72.3 °F 30.04 in Calm     86% 0 in 0.00 W/m2
01:49 77 °F 72.5 °F 30.04 in Calm     86% 0 in 0.00 W/m2
01:54 76.4 °F 71.9 °F 30.04 in Calm     86% 0 in 0.00 W/m2
01:59 75.9 °F 72.1 °F 30.04 in Calm     88% 0 in 0.00 W/m2
02:04 75.7 °F 71.9 °F 30.04 in Calm     88% 0 in 0.00 W/m2
02:09 75.7 °F 71.9 °F 30.04 in Calm     88% 0 in 0.00 W/m2
02:14 75.5 °F 71.7 °F 30.04 in Calm     88% 0 in 0.00 W/m2
02:19 75.4 °F 71.9 °F 30.04 in Calm     89% 0 in 0.00 W/m2
02:24 75.2 °F 71.7 °F 30.04 in Calm     89% 0 in 0.00 W/m2
02:29 75.1 °F 71.6 °F 30.04 in Calm     89% 0 in 0.00 W/m2
02:34 75 °F 71.5 °F 30.04 in Calm     89% 0 in 0.00 W/m2
02:39 74.8 °F 71.7 °F 30.03 in Calm     90% 0 in 0.00 W/m2
02:44 74.5 °F 71.4 °F 30.03 in Calm     90% 0 in 0.00 W/m2
02:49 74.3 °F 71.2 °F 30.03 in Calm     90% 0 in 0.00 W/m2
02:54 74.2 °F 71.4 °F 30.03 in Calm     91% 0 in 0.00 W/m2
02:59 74.2 °F 71.4 °F 30.03 in Calm     91% 0 in 0.00 W/m2
03:04 74.1 °F 71.3 °F 30.03 in Calm     91% 0 in 0.00 W/m2
03:09 74.1 °F 71.3 °F 30.02 in Calm     91% 0 in 0.00 W/m2
03:14 73.9 °F 71.1 °F 30.02 in Calm     91% 0 in 0.00 W/m2
03:19 73.8 °F 71 °F 30.02 in Calm     91% 0 in 0.00 W/m2
03:24 74 °F 71.5 °F 30.02 in Calm     92% 0 in 0.00 W/m2
03:29 74.3 °F 71.8 °F 30.02 in Calm     92% 0 in 0.00 W/m2
03:34 74.2 °F 71.4 °F 30.02 in Calm     91% 0 in 0.00 W/m2
03:39 74.1 °F 71.6 °F 30.01 in Calm     92% 0 in 0.00 W/m2
03:44 74 °F 71.5 °F 30.01 in Calm     92% 0 in 0.00 W/m2
03:49 74 °F 71.5 °F 30.01 in Calm     92% 0 in 0.00 W/m2
03:54 73.9 °F 71.4 °F 30.02 in Calm     92% 0 in 0.00 W/m2
03:59 73.8 °F 71.3 °F 30.01 in Calm     92% 0 in 0.00 W/m2
04:04 73.8 °F 71.6 °F 30.02 in Calm     93% 0 in 0.00 W/m2
04:09 73.9 °F 71.7 °F 30.02 in Calm     93% 0 in 0.00 W/m2
04:14 74 °F 71.8 °F 30.02 in Calm     93% 0 in 0.00 W/m2
04:19 74.2 °F 72 °F 30.01 in ESE 0.3 mph 1.2 mph 93% 0 in 0.00 W/m2
04:24 74.5 °F 72.3 °F 30.01 in Calm     93% 0 in 0.00 W/m2
04:29 74.6 °F 72.1 °F 30.01 in Calm     92% 0 in 0.00 W/m2
04:34 74.5 °F 72 °F 30.02 in Calm     92% 0 in 0.00 W/m2
04:39 74.9 °F 72.7 °F 30.02 in Calm     93% 0 in 0.00 W/m2
04:44 74.8 °F 72.3 °F 30.02 in Calm     92% 0 in 0.00 W/m2
04:49 74.8 °F 72.6 °F 30.02 in Calm     93% 0 in 0.00 W/m2
04:54 74.7 °F 72.2 °F 30.02 in Calm     92% 0 in 0.00 W/m2
04:59 74.7 °F 72.2 °F 30.02 in Calm     92% 0 in 0.00 W/m2
05:04 74.6 °F 72.1 °F 30.02 in Calm     92% 0 in 0.00 W/m2
05:09 74.6 °F 72.4 °F 30.02 in Calm     93% 0 in 0.00 W/m2
05:14 74.6 °F 72.4 °F 30.02 in Calm     93% 0 in 0.00 W/m2
05:19 74.6 °F 72.4 °F 30.02 in Calm     93% 0 in 0.00 W/m2
05:24 74.5 °F 72.3 °F 30.02 in Calm     93% 0 in 0.00 W/m2
05:29 74.5 °F 72.3 °F 30.02 in Calm     93% 0 in 0.00 W/m2
05:34 74.4 °F 72.2 °F 30.02 in Calm     93% 0 in 0.00 W/m2
05:39 74.2 °F 72 °F 30.02 in Calm     93% 0 in 0.00 W/m2
05:44 74.2 °F 72 °F 30.02 in Calm     93% 0 in 0.00 W/m2
05:49 74.2 °F 72 °F 30.02 in Calm     93% 0 in 0.00 W/m2
05:54 74.1 °F 71.9 °F 30.02 in Calm     93% 0 in 0.00 W/m2
05:59 74.1 °F 71.9 °F 30.02 in Calm     93% 0 in 0.00 W/m2
06:04 74 °F 71.8 °F 30.02 in Calm     93% 0 in 0.00 W/m2
06:09 73.9 °F 72.1 °F 30.02 in Calm     94% 0 in 0.00 W/m2
06:14 73.8 °F 72 °F 30.02 in Calm     94% 0 in 0.00 W/m2
06:19 73.7 °F 71.9 °F 30.03 in Calm     94% 0 in 0.00 W/m2
06:24 73.7 °F 71.9 °F 30.03 in Calm     94% 0 in 0.00 W/m2
06:29 73.6 °F 71.8 °F 30.02 in Calm     94% 0 in 0.00 W/m2
06:34 73.7 °F 71.9 °F 30.02 in Calm     94% 0 in 0.00 W/m2
06:39 73.8 °F 72 °F 30.02 in Calm     94% 0 in 0.00 W/m2
Juneau County Weather
Compliments of Weather Underground - 2 mb